sensor_id;sensor_type;location;lat;lon;timestamp;P1;durP1;ratioP1;P2;durP2;ratioP2
60436;SDS011;46289;51.992;4.498;2023-12-04T00:01:32;15.80;;;8.15;;
60436;SDS011;46289;51.992;4.498;2023-12-04T00:03:42;15.15;;;7.38;;
60436;SDS011;46289;51.992;4.498;2023-12-04T00:05:47;19.10;;;7.53;;
60436;SDS011;46289;51.992;4.498;2023-12-04T00:07:52;21.23;;;8.30;;
60436;SDS011;46289;51.992;4.498;2023-12-04T00:09:57;16.60;;;7.72;;
60436;SDS011;46289;51.992;4.498;2023-12-04T00:12:02;19.77;;;7.20;;
60436;SDS011;46289;51.992;4.498;2023-12-04T00:14:08;15.30;;;7.00;;
60436;SDS011;46289;51.992;4.498;2023-12-04T00:16:13;18.67;;;7.85;;
60436;SDS011;46289;51.992;4.498;2023-12-04T00:18:18;18.33;;;7.60;;
60436;SDS011;46289;51.992;4.498;2023-12-04T00:20:25;24.17;;;7.93;;
60436;SDS011;46289;51.992;4.498;2023-12-04T00:22:30;15.32;;;7.63;;
60436;SDS011;46289;51.992;4.498;2023-12-04T00:24:35;15.88;;;8.88;;
60436;SDS011;46289;51.992;4.498;2023-12-04T00:26:40;24.08;;;9.23;;
60436;SDS011;46289;51.992;4.498;2023-12-04T00:28:45;14.57;;;7.60;;
60436;SDS011;46289;51.992;4.498;2023-12-04T00:30:50;14.55;;;6.95;;
60436;SDS011;46289;51.992;4.498;2023-12-04T00:32:56;14.98;;;7.00;;
60436;SDS011;46289;51.992;4.498;2023-12-04T00:35:02;20.35;;;7.70;;
60436;SDS011;46289;51.992;4.498;2023-12-04T00:37:09;24.23;;;8.32;;
60436;SDS011;46289;51.992;4.498;2023-12-04T00:39:15;18.13;;;6.88;;
60436;SDS011;46289;51.992;4.498;2023-12-04T00:41:20;17.23;;;7.20;;
60436;SDS011;46289;51.992;4.498;2023-12-04T00:43:25;16.52;;;9.30;;
60436;SDS011;46289;51.992;4.498;2023-12-04T00:45:31;21.88;;;9.50;;
60436;SDS011;46289;51.992;4.498;2023-12-04T00:47:36;17.42;;;8.32;;
60436;SDS011;46289;51.992;4.498;2023-12-04T00:49:41;13.45;;;7.35;;
60436;SDS011;46289;51.992;4.498;2023-12-04T00:51:46;22.00;;;8.07;;
60436;SDS011;46289;51.992;4.498;2023-12-04T00:53:53;16.65;;;6.78;;
60436;SDS011;46289;51.992;4.498;2023-12-04T00:55:58;17.50;;;7.43;;
60436;SDS011;46289;51.992;4.498;2023-12-04T00:58:03;16.63;;;7.63;;
60436;SDS011;46289;51.992;4.498;2023-12-04T01:00:09;18.15;;;7.40;;
60436;SDS011;46289;51.992;4.498;2023-12-04T01:02:15;13.55;;;7.35;;
60436;SDS011;46289;51.992;4.498;2023-12-04T01:04:20;15.00;;;7.13;;
60436;SDS011;46289;51.992;4.498;2023-12-04T01:06:25;16.13;;;7.25;;
60436;SDS011;46289;51.992;4.498;2023-12-04T01:08:31;13.80;;;6.00;;
60436;SDS011;46289;51.992;4.498;2023-12-04T01:10:39;14.20;;;6.72;;
60436;SDS011;46289;51.992;4.498;2023-12-04T01:12:43;16.63;;;8.02;;
60436;SDS011;46289;51.992;4.498;2023-12-04T01:14:48;14.52;;;6.90;;
60436;SDS011;46289;51.992;4.498;2023-12-04T01:16:54;14.40;;;6.28;;
60436;SDS011;46289;51.992;4.498;2023-12-04T01:18:59;15.32;;;6.55;;
60436;SDS011;46289;51.992;4.498;2023-12-04T01:21:04;13.18;;;6.72;;
60436;SDS011;46289;51.992;4.498;2023-12-04T01:23:10;18.83;;;8.13;;
60436;SDS011;46289;51.992;4.498;2023-12-04T01:25:15;14.13;;;7.22;;
60436;SDS011;46289;51.992;4.498;2023-12-04T01:27:20;17.33;;;8.07;;
60436;SDS011;46289;51.992;4.498;2023-12-04T01:29:25;11.88;;;5.40;;
60436;SDS011;46289;51.992;4.498;2023-12-04T01:31:33;21.65;;;7.38;;
60436;SDS011;46289;51.992;4.498;2023-12-04T01:33:38;14.70;;;6.63;;
60436;SDS011;46289;51.992;4.498;2023-12-04T01:35:43;15.95;;;6.57;;
60436;SDS011;46289;51.992;4.498;2023-12-04T01:37:48;13.02;;;5.90;;
60436;SDS011;46289;51.992;4.498;2023-12-04T01:39:50;16.23;;;7.03;;
60436;SDS011;46289;51.992;4.498;2023-12-04T01:41:55;18.15;;;8.40;;
60436;SDS011;46289;51.992;4.498;2023-12-04T01:44:02;15.02;;;6.47;;
60436;SDS011;46289;51.992;4.498;2023-12-04T01:46:07;21.05;;;7.68;;
60436;SDS011;46289;51.992;4.498;2023-12-04T01:48:13;24.27;;;9.13;;
60436;SDS011;46289;51.992;4.498;2023-12-04T01:50:19;15.00;;;6.60;;
60436;SDS011;46289;51.992;4.498;2023-12-04T01:52:24;13.65;;;6.70;;
60436;SDS011;46289;51.992;4.498;2023-12-04T01:54:27;13.68;;;8.00;;
60436;SDS011;46289;51.992;4.498;2023-12-04T01:56:33;19.90;;;7.07;;
60436;SDS011;46289;51.992;4.498;2023-12-04T01:58:40;21.27;;;6.70;;
60436;SDS011;46289;51.992;4.498;2023-12-04T02:00:51;14.68;;;6.38;;
60436;SDS011;46289;51.992;4.498;2023-12-04T02:02:56;16.00;;;6.75;;
60436;SDS011;46289;51.992;4.498;2023-12-04T02:05:02;17.23;;;7.20;;
60436;SDS011;46289;51.992;4.498;2023-12-04T02:07:06;19.08;;;7.93;;
60436;SDS011;46289;51.992;4.498;2023-12-04T02:09:11;15.52;;;5.57;;
60436;SDS011;46289;51.992;4.498;2023-12-04T02:11:17;11.35;;;5.88;;
60436;SDS011;46289;51.992;4.498;2023-12-04T02:13:22;17.73;;;6.63;;
60436;SDS011;46289;51.992;4.498;2023-12-04T02:15:28;15.90;;;6.40;;
60436;SDS011;46289;51.992;4.498;2023-12-04T02:17:35;15.35;;;6.55;;
60436;SDS011;46289;51.992;4.498;2023-12-04T02:19:42;13.50;;;6.25;;
60436;SDS011;46289;51.992;4.498;2023-12-04T02:21:47;12.27;;;5.47;;
60436;SDS011;46289;51.992;4.498;2023-12-04T02:23:54;11.85;;;5.47;;
60436;SDS011;46289;51.992;4.498;2023-12-04T02:25:59;12.15;;;6.25;;
60436;SDS011;46289;51.992;4.498;2023-12-04T02:28:05;12.30;;;7.05;;
60436;SDS011;46289;51.992;4.498;2023-12-04T02:30:15;13.60;;;6.32;;
60436;SDS011;46289;51.992;4.498;2023-12-04T02:32:24;15.63;;;6.00;;
60436;SDS011;46289;51.992;4.498;2023-12-04T02:34:33;12.05;;;5.78;;
60436;SDS011;46289;51.992;4.498;2023-12-04T02:36:39;10.85;;;7.43;;
60436;SDS011;46289;51.992;4.498;2023-12-04T02:38:47;12.63;;;5.70;;
60436;SDS011;46289;51.992;4.498;2023-12-04T02:40:53;13.82;;;7.05;;
60436;SDS011;46289;51.992;4.498;2023-12-04T02:42:58;13.40;;;6.45;;
60436;SDS011;46289;51.992;4.498;2023-12-04T02:47:05;15.07;;;6.72;;
60436;SDS011;46289;51.992;4.498;2023-12-04T02:49:10;15.20;;;6.97;;
60436;SDS011;46289;51.992;4.498;2023-12-04T02:51:17;11.88;;;5.88;;
60436;SDS011;46289;51.992;4.498;2023-12-04T02:53:22;24.52;;;7.22;;
60436;SDS011;46289;51.992;4.498;2023-12-04T02:55:26;11.00;;;6.38;;
60436;SDS011;46289;51.992;4.498;2023-12-04T02:57:35;17.52;;;7.15;;
60436;SDS011;46289;51.992;4.498;2023-12-04T02:59:40;11.25;;;4.90;;
60436;SDS011;46289;51.992;4.498;2023-12-04T03:01:47;13.60;;;6.30;;
60436;SDS011;46289;51.992;4.498;2023-12-04T03:03:52;12.82;;;5.93;;
60436;SDS011;46289;51.992;4.498;2023-12-04T03:05:57;8.55;;;5.25;;
60436;SDS011;46289;51.992;4.498;2023-12-04T03:08:00;9.57;;;5.40;;
60436;SDS011;46289;51.992;4.498;2023-12-04T03:10:05;14.48;;;5.68;;
60436;SDS011;46289;51.992;4.498;2023-12-04T03:12:11;13.93;;;5.25;;
60436;SDS011;46289;51.992;4.498;2023-12-04T03:14:18;10.45;;;5.53;;
60436;SDS011;46289;51.992;4.498;2023-12-04T03:16:23;13.23;;;5.43;;
60436;SDS011;46289;51.992;4.498;2023-12-04T03:18:32;9.98;;;4.80;;
60436;SDS011;46289;51.992;4.498;2023-12-04T03:20:38;12.73;;;4.53;;
60436;SDS011;46289;51.992;4.498;2023-12-04T03:22:43;9.13;;;4.13;;
60436;SDS011;46289;51.992;4.498;2023-12-04T03:24:48;11.82;;;5.43;;
60436;SDS011;46289;51.992;4.498;2023-12-04T03:26:50;9.75;;;5.03;;
60436;SDS011;46289;51.992;4.498;2023-12-04T03:28:55;13.55;;;4.60;;
60436;SDS011;46289;51.992;4.498;2023-12-04T03:31:03;11.55;;;5.22;;
60436;SDS011;46289;51.992;4.498;2023-12-04T03:33:08;10.95;;;4.72;;
60436;SDS011;46289;51.992;4.498;2023-12-04T03:35:14;12.90;;;5.50;;
60436;SDS011;46289;51.992;4.498;2023-12-04T03:37:19;15.13;;;6.78;;
60436;SDS011;46289;51.992;4.498;2023-12-04T03:39:22;12.05;;;4.78;;
60436;SDS011;46289;51.992;4.498;2023-12-04T03:41:26;16.25;;;5.07;;
60436;SDS011;46289;51.992;4.498;2023-12-04T03:43:32;15.32;;;5.50;;
60436;SDS011;46289;51.992;4.498;2023-12-04T03:45:37;12.75;;;5.53;;
60436;SDS011;46289;51.992;4.498;2023-12-04T03:47:44;8.27;;;4.00;;
60436;SDS011;46289;51.992;4.498;2023-12-04T03:49:50;14.02;;;5.15;;
60436;SDS011;46289;51.992;4.498;2023-12-04T03:51:54;14.13;;;6.53;;
60436;SDS011;46289;51.992;4.498;2023-12-04T03:54:02;8.60;;;4.35;;
60436;SDS011;46289;51.992;4.498;2023-12-04T03:56:10;12.43;;;5.80;;
60436;SDS011;46289;51.992;4.498;2023-12-04T03:58:15;8.68;;;5.35;;
60436;SDS011;46289;51.992;4.498;2023-12-04T04:00:20;10.13;;;5.00;;
60436;SDS011;46289;51.992;4.498;2023-12-04T04:02:25;10.40;;;5.47;;
60436;SDS011;46289;51.992;4.498;2023-12-04T04:04:35;7.38;;;4.43;;
60436;SDS011;46289;51.992;4.498;2023-12-04T04:06:41;8.55;;;4.18;;
60436;SDS011;46289;51.992;4.498;2023-12-04T04:08:46;7.30;;;4.13;;
60436;SDS011;46289;51.992;4.498;2023-12-04T04:10:51;8.93;;;3.78;;
60436;SDS011;46289;51.992;4.498;2023-12-04T04:12:56;9.63;;;4.68;;
60436;SDS011;46289;51.992;4.498;2023-12-04T04:15:02;8.82;;;4.85;;
60436;SDS011;46289;51.992;4.498;2023-12-04T04:17:04;9.98;;;4.75;;
60436;SDS011;46289;51.992;4.498;2023-12-04T04:19:12;11.13;;;5.10;;
60436;SDS011;46289;51.992;4.498;2023-12-04T04:21:19;10.38;;;3.88;;
60436;SDS011;46289;51.992;4.498;2023-12-04T04:23:24;11.13;;;3.97;;
60436;SDS011;46289;51.992;4.498;2023-12-04T04:25:29;11.13;;;4.38;;
60436;SDS011;46289;51.992;4.498;2023-12-04T04:27:34;7.57;;;4.18;;
60436;SDS011;46289;51.992;4.498;2023-12-04T04:29:37;10.63;;;4.40;;
60436;SDS011;46289;51.992;4.498;2023-12-04T04:31:42;8.38;;;4.10;;
60436;SDS011;46289;51.992;4.498;2023-12-04T04:33:47;9.27;;;4.55;;
60436;SDS011;46289;51.992;4.498;2023-12-04T04:35:52;7.93;;;4.25;;
60436;SDS011;46289;51.992;4.498;2023-12-04T04:38:01;7.85;;;4.10;;
60436;SDS011;46289;51.992;4.498;2023-12-04T04:40:06;8.98;;;4.90;;
60436;SDS011;46289;51.992;4.498;2023-12-04T04:42:12;10.45;;;4.80;;
60436;SDS011;46289;51.992;4.498;2023-12-04T04:44:18;6.93;;;3.92;;
60436;SDS011;46289;51.992;4.498;2023-12-04T04:46:27;9.45;;;4.47;;
60436;SDS011;46289;51.992;4.498;2023-12-04T04:48:34;8.63;;;3.97;;
60436;SDS011;46289;51.992;4.498;2023-12-04T04:50:42;8.63;;;3.47;;
60436;SDS011;46289;51.992;4.498;2023-12-04T04:52:47;12.10;;;5.07;;
60436;SDS011;46289;51.992;4.498;2023-12-04T04:54:54;9.93;;;4.70;;
60436;SDS011;46289;51.992;4.498;2023-12-04T04:56:59;10.98;;;4.90;;
60436;SDS011;46289;51.992;4.498;2023-12-04T04:59:01;9.55;;;4.90;;
60436;SDS011;46289;51.992;4.498;2023-12-04T05:01:08;8.45;;;4.55;;
60436;SDS011;46289;51.992;4.498;2023-12-04T05:03:13;9.13;;;4.35;;
60436;SDS011;46289;51.992;4.498;2023-12-04T05:05:22;12.20;;;4.03;;
60436;SDS011;46289;51.992;4.498;2023-12-04T05:07:25;6.90;;;4.22;;
60436;SDS011;46289;51.992;4.498;2023-12-04T05:09:30;6.32;;;3.80;;
60436;SDS011;46289;51.992;4.498;2023-12-04T05:11:35;9.73;;;4.93;;
60436;SDS011;46289;51.992;4.498;2023-12-04T05:13:40;11.07;;;5.28;;
60436;SDS011;46289;51.992;4.498;2023-12-04T05:15:42;10.02;;;4.85;;
60436;SDS011;46289;51.992;4.498;2023-12-04T05:17:47;13.88;;;4.22;;
60436;SDS011;46289;51.992;4.498;2023-12-04T05:19:52;8.25;;;3.67;;
60436;SDS011;46289;51.992;4.498;2023-12-04T05:21:59;7.32;;;4.18;;
60436;SDS011;46289;51.992;4.498;2023-12-04T05:24:06;4.80;;;3.42;;
60436;SDS011;46289;51.992;4.498;2023-12-04T05:26:13;8.95;;;4.00;;
60436;SDS011;46289;51.992;4.498;2023-12-04T05:28:18;8.40;;;4.43;;
60436;SDS011;46289;51.992;4.498;2023-12-04T05:30:23;8.98;;;5.43;;
60436;SDS011;46289;51.992;4.498;2023-12-04T05:32:28;11.45;;;4.15;;
60436;SDS011;46289;51.992;4.498;2023-12-04T05:34:33;13.52;;;3.72;;
60436;SDS011;46289;51.992;4.498;2023-12-04T05:36:37;10.50;;;4.03;;
60436;SDS011;46289;51.992;4.498;2023-12-04T05:38:42;7.13;;;3.63;;
60436;SDS011;46289;51.992;4.498;2023-12-04T05:40:49;8.77;;;4.15;;
60436;SDS011;46289;51.992;4.498;2023-12-04T05:42:54;8.10;;;3.88;;
60436;SDS011;46289;51.992;4.498;2023-12-04T05:45:03;9.43;;;4.93;;
60436;SDS011;46289;51.992;4.498;2023-12-04T05:47:09;9.30;;;6.15;;
60436;SDS011;46289;51.992;4.498;2023-12-04T05:49:14;10.90;;;5.28;;
60436;SDS011;46289;51.992;4.498;2023-12-04T05:51:19;7.85;;;3.95;;
60436;SDS011;46289;51.992;4.498;2023-12-04T05:53:24;9.90;;;4.90;;
60436;SDS011;46289;51.992;4.498;2023-12-04T05:55:30;12.73;;;5.07;;
60436;SDS011;46289;51.992;4.498;2023-12-04T05:57:35;8.55;;;4.18;;
60436;SDS011;46289;51.992;4.498;2023-12-04T05:59:40;10.90;;;4.90;;
60436;SDS011;46289;51.992;4.498;2023-12-04T06:01:52;9.63;;;4.50;;
60436;SDS011;46289;51.992;4.498;2023-12-04T06:03:57;6.82;;;4.50;;
60436;SDS011;46289;51.992;4.498;2023-12-04T06:06:02;10.88;;;4.50;;
60436;SDS011;46289;51.992;4.498;2023-12-04T06:08:08;8.73;;;4.57;;
60436;SDS011;46289;51.992;4.498;2023-12-04T06:10:14;9.43;;;6.05;;
60436;SDS011;46289;51.992;4.498;2023-12-04T06:12:19;7.35;;;4.25;;
60436;SDS011;46289;51.992;4.498;2023-12-04T06:14:24;9.43;;;3.60;;
60436;SDS011;46289;51.992;4.498;2023-12-04T06:16:29;12.20;;;4.38;;
60436;SDS011;46289;51.992;4.498;2023-12-04T06:18:35;9.55;;;4.57;;
60436;SDS011;46289;51.992;4.498;2023-12-04T06:20:40;12.77;;;5.43;;
60436;SDS011;46289;51.992;4.498;2023-12-04T06:22:44;6.60;;;4.38;;
60436;SDS011;46289;51.992;4.498;2023-12-04T06:24:50;12.95;;;5.63;;
60436;SDS011;46289;51.992;4.498;2023-12-04T06:26:56;14.75;;;6.18;;
60436;SDS011;46289;51.992;4.498;2023-12-04T06:28:59;9.25;;;4.68;;
60436;SDS011;46289;51.992;4.498;2023-12-04T06:31:12;9.98;;;4.50;;
60436;SDS011;46289;51.992;4.498;2023-12-04T06:33:18;7.63;;;3.72;;
60436;SDS011;46289;51.992;4.498;2023-12-04T06:35:27;8.82;;;4.88;;
60436;SDS011;46289;51.992;4.498;2023-12-04T06:37:34;12.00;;;5.30;;
60436;SDS011;46289;51.992;4.498;2023-12-04T06:39:41;10.30;;;4.78;;
60436;SDS011;46289;51.992;4.498;2023-12-04T06:41:49;8.00;;;4.50;;
60436;SDS011;46289;51.992;4.498;2023-12-04T06:43:56;11.02;;;4.93;;
60436;SDS011;46289;51.992;4.498;2023-12-04T06:46:05;9.77;;;6.00;;
60436;SDS011;46289;51.992;4.498;2023-12-04T06:48:10;8.73;;;5.57;;
60436;SDS011;46289;51.992;4.498;2023-12-04T06:50:18;10.65;;;4.20;;
60436;SDS011;46289;51.992;4.498;2023-12-04T06:52:26;8.73;;;4.65;;
60436;SDS011;46289;51.992;4.498;2023-12-04T06:54:31;10.35;;;4.57;;
60436;SDS011;46289;51.992;4.498;2023-12-04T06:56:37;12.25;;;5.43;;
60436;SDS011;46289;51.992;4.498;2023-12-04T06:58:45;9.25;;;4.05;;
60436;SDS011;46289;51.992;4.498;2023-12-04T07:00:50;7.95;;;3.72;;
60436;SDS011;46289;51.992;4.498;2023-12-04T07:02:58;8.85;;;4.30;;
60436;SDS011;46289;51.992;4.498;2023-12-04T07:05:03;11.43;;;4.40;;
60436;SDS011;46289;51.992;4.498;2023-12-04T07:07:09;7.63;;;4.20;;
60436;SDS011;46289;51.992;4.498;2023-12-04T07:09:17;10.73;;;4.97;;
60436;SDS011;46289;51.992;4.498;2023-12-04T07:11:24;6.65;;;3.13;;
60436;SDS011;46289;51.992;4.498;2023-12-04T07:13:32;11.60;;;4.15;;
60436;SDS011;46289;51.992;4.498;2023-12-04T07:15:37;7.90;;;4.10;;
60436;SDS011;46289;51.992;4.498;2023-12-04T07:17:44;9.48;;;4.00;;
60436;SDS011;46289;51.992;4.498;2023-12-04T07:19:49;6.93;;;4.30;;
60436;SDS011;46289;51.992;4.498;2023-12-04T07:21:55;9.05;;;4.15;;
60436;SDS011;46289;51.992;4.498;2023-12-04T07:24:00;7.88;;;4.70;;
60436;SDS011;46289;51.992;4.498;2023-12-04T07:26:10;8.95;;;4.78;;
60436;SDS011;46289;51.992;4.498;2023-12-04T07:28:15;10.55;;;4.03;;
60436;SDS011;46289;51.992;4.498;2023-12-04T07:30:23;8.60;;;4.63;;
60436;SDS011;46289;51.992;4.498;2023-12-04T07:32:30;10.90;;;5.00;;
60436;SDS011;46289;51.992;4.498;2023-12-04T07:34:34;11.35;;;5.20;;
60436;SDS011;46289;51.992;4.498;2023-12-04T07:36:39;8.48;;;4.22;;
60436;SDS011;46289;51.992;4.498;2023-12-04T07:38:48;8.88;;;4.97;;
60436;SDS011;46289;51.992;4.498;2023-12-04T07:40:57;6.15;;;4.13;;
60436;SDS011;46289;51.992;4.498;2023-12-04T07:43:04;8.15;;;3.65;;
60436;SDS011;46289;51.992;4.498;2023-12-04T07:45:10;8.25;;;4.15;;
60436;SDS011;46289;51.992;4.498;2023-12-04T07:47:18;8.75;;;4.20;;
60436;SDS011;46289;51.992;4.498;2023-12-04T07:49:25;8.35;;;3.53;;
60436;SDS011;46289;51.992;4.498;2023-12-04T07:51:31;8.68;;;4.63;;
60436;SDS011;46289;51.992;4.498;2023-12-04T07:53:39;7.70;;;4.22;;
60436;SDS011;46289;51.992;4.498;2023-12-04T07:55:46;9.50;;;4.32;;
60436;SDS011;46289;51.992;4.498;2023-12-04T07:57:52;10.00;;;4.63;;
60436;SDS011;46289;51.992;4.498;2023-12-04T08:00:05;10.23;;;4.15;;
60436;SDS011;46289;51.992;4.498;2023-12-04T08:02:14;7.70;;;4.15;;
60436;SDS011;46289;51.992;4.498;2023-12-04T08:04:19;7.88;;;4.68;;
60436;SDS011;46289;51.992;4.498;2023-12-04T08:06:25;8.48;;;4.57;;
60436;SDS011;46289;51.992;4.498;2023-12-04T08:08:30;9.43;;;4.05;;
60436;SDS011;46289;51.992;4.498;2023-12-04T08:10:35;7.03;;;3.55;;
60436;SDS011;46289;51.992;4.498;2023-12-04T08:12:37;9.05;;;4.60;;
60436;SDS011;46289;51.992;4.498;2023-12-04T08:14:44;7.30;;;4.57;;
60436;SDS011;46289;51.992;4.498;2023-12-04T08:16:51;6.85;;;3.53;;
60436;SDS011;46289;51.992;4.498;2023-12-04T08:18:59;8.55;;;3.67;;
60436;SDS011;46289;51.992;4.498;2023-12-04T08:21:04;9.93;;;3.83;;
60436;SDS011;46289;51.992;4.498;2023-12-04T08:23:14;6.57;;;3.97;;
60436;SDS011;46289;51.992;4.498;2023-12-04T08:25:19;10.20;;;4.47;;
60436;SDS011;46289;51.992;4.498;2023-12-04T08:27:27;5.40;;;3.78;;
60436;SDS011;46289;51.992;4.498;2023-12-04T08:29:32;8.65;;;3.92;;
60436;SDS011;46289;51.992;4.498;2023-12-04T08:31:38;9.50;;;3.67;;
60436;SDS011;46289;51.992;4.498;2023-12-04T08:33:46;5.22;;;3.53;;
60436;SDS011;46289;51.992;4.498;2023-12-04T08:35:51;8.30;;;4.32;;
60436;SDS011;46289;51.992;4.498;2023-12-04T08:37:56;7.82;;;3.42;;
60436;SDS011;46289;51.992;4.498;2023-12-04T08:40:01;8.20;;;4.68;;
60436;SDS011;46289;51.992;4.498;2023-12-04T08:42:07;8.68;;;3.80;;
60436;SDS011;46289;51.992;4.498;2023-12-04T08:44:21;8.65;;;4.13;;
60436;SDS011;46289;51.992;4.498;2023-12-04T08:46:26;9.15;;;3.92;;
60436;SDS011;46289;51.992;4.498;2023-12-04T08:48:33;7.55;;;4.15;;
60436;SDS011;46289;51.992;4.498;2023-12-04T08:50:40;7.43;;;3.50;;
60436;SDS011;46289;51.992;4.498;2023-12-04T08:52:45;7.03;;;4.03;;
60436;SDS011;46289;51.992;4.498;2023-12-04T08:54:50;8.93;;;3.83;;
60436;SDS011;46289;51.992;4.498;2023-12-04T08:56:55;9.70;;;4.43;;
60436;SDS011;46289;51.992;4.498;2023-12-04T08:59:00;8.80;;;4.88;;
60436;SDS011;46289;51.992;4.498;2023-12-04T09:01:05;6.00;;;3.72;;
60436;SDS011;46289;51.992;4.498;2023-12-04T09:03:12;8.88;;;4.82;;
60436;SDS011;46289;51.992;4.498;2023-12-04T09:05:26;8.82;;;3.92;;
60436;SDS011;46289;51.992;4.498;2023-12-04T09:07:34;9.82;;;3.97;;
60436;SDS011;46289;51.992;4.498;2023-12-04T09:09:42;10.40;;;4.50;;
60436;SDS011;46289;51.992;4.498;2023-12-04T09:11:48;6.63;;;4.00;;
60436;SDS011;46289;51.992;4.498;2023-12-04T09:13:53;6.18;;;3.85;;
60436;SDS011;46289;51.992;4.498;2023-12-04T09:15:59;7.57;;;4.13;;
60436;SDS011;46289;51.992;4.498;2023-12-04T09:18:04;8.60;;;3.60;;
60436;SDS011;46289;51.992;4.498;2023-12-04T09:20:09;5.40;;;3.92;;
60436;SDS011;46289;51.992;4.498;2023-12-04T09:22:14;9.30;;;5.03;;
60436;SDS011;46289;51.992;4.498;2023-12-04T09:24:24;6.50;;;3.88;;
60436;SDS011;46289;51.992;4.498;2023-12-04T09:26:33;7.00;;;4.63;;
60436;SDS011;46289;51.992;4.498;2023-12-04T09:28:37;11.13;;;4.60;;
60436;SDS011;46289;51.992;4.498;2023-12-04T09:30:45;6.47;;;3.42;;
60436;SDS011;46289;51.992;4.498;2023-12-04T09:32:54;7.32;;;4.32;;
60436;SDS011;46289;51.992;4.498;2023-12-04T09:34:59;6.82;;;3.25;;
60436;SDS011;46289;51.992;4.498;2023-12-04T09:37:04;10.70;;;4.50;;
60436;SDS011;46289;51.992;4.498;2023-12-04T09:39:13;8.90;;;3.65;;
60436;SDS011;46289;51.992;4.498;2023-12-04T09:41:27;6.95;;;3.45;;
60436;SDS011;46289;51.992;4.498;2023-12-04T09:43:33;5.82;;;3.35;;
60436;SDS011;46289;51.992;4.498;2023-12-04T09:45:38;9.23;;;4.40;;
60436;SDS011;46289;51.992;4.498;2023-12-04T09:47:45;8.80;;;4.28;;
60436;SDS011;46289;51.992;4.498;2023-12-04T09:49:49;6.68;;;3.88;;
60436;SDS011;46289;51.992;4.498;2023-12-04T09:51:57;9.48;;;4.22;;
60436;SDS011;46289;51.992;4.498;2023-12-04T09:54:09;8.48;;;4.15;;
60436;SDS011;46289;51.992;4.498;2023-12-04T09:56:14;9.52;;;4.63;;
60436;SDS011;46289;51.992;4.498;2023-12-04T09:58:23;7.13;;;4.35;;
60436;SDS011;46289;51.992;4.498;2023-12-04T10:00:32;8.10;;;3.97;;
60436;SDS011;46289;51.992;4.498;2023-12-04T10:02:42;7.70;;;4.00;;
60436;SDS011;46289;51.992;4.498;2023-12-04T10:04:49;7.05;;;3.88;;
60436;SDS011;46289;51.992;4.498;2023-12-04T10:06:55;5.47;;;3.35;;
60436;SDS011;46289;51.992;4.498;2023-12-04T10:09:15;5.30;;;3.17;;
60436;SDS011;46289;51.992;4.498;2023-12-04T10:11:28;5.75;;;3.78;;
60436;SDS011;46289;51.992;4.498;2023-12-04T10:13:37;7.68;;;4.57;;
60436;SDS011;46289;51.992;4.498;2023-12-04T10:16:00;8.10;;;4.32;;
60436;SDS011;46289;51.992;4.498;2023-12-04T10:18:06;6.45;;;3.58;;
60436;SDS011;46289;51.992;4.498;2023-12-04T10:20:35;9.70;;;3.60;;
60436;SDS011;46289;51.992;4.498;2023-12-04T10:22:53;6.25;;;3.22;;
60436;SDS011;46289;51.992;4.498;2023-12-04T10:24:59;7.40;;;4.63;;
60436;SDS011;46289;51.992;4.498;2023-12-04T10:27:20;6.40;;;3.08;;
60436;SDS011;46289;51.992;4.498;2023-12-04T10:29:48;8.50;;;4.15;;
60436;SDS011;46289;51.992;4.498;2023-12-04T10:31:59;6.70;;;3.55;;
60436;SDS011;46289;51.992;4.498;2023-12-04T10:34:11;6.60;;;3.72;;
60436;SDS011;46289;51.992;4.498;2023-12-04T10:36:20;7.47;;;3.80;;
60436;SDS011;46289;51.992;4.498;2023-12-04T10:38:38;8.27;;;3.70;;
60436;SDS011;46289;51.992;4.498;2023-12-04T10:40:44;5.78;;;3.25;;
60436;SDS011;46289;51.992;4.498;2023-12-04T10:42:49;5.18;;;3.30;;
60436;SDS011;46289;51.992;4.498;2023-12-04T10:44:57;6.22;;;3.60;;
60436;SDS011;46289;51.992;4.498;2023-12-04T10:47:04;6.38;;;3.90;;
60436;SDS011;46289;51.992;4.498;2023-12-04T10:49:10;8.70;;;4.40;;
60436;SDS011;46289;51.992;4.498;2023-12-04T10:51:21;5.53;;;3.53;;
60436;SDS011;46289;51.992;4.498;2023-12-04T10:53:28;6.80;;;4.00;;
60436;SDS011;46289;51.992;4.498;2023-12-04T10:55:38;6.38;;;3.47;;
60436;SDS011;46289;51.992;4.498;2023-12-04T10:57:56;7.32;;;3.58;;
60436;SDS011;46289;51.992;4.498;2023-12-04T11:00:05;7.22;;;4.28;;
60436;SDS011;46289;51.992;4.498;2023-12-04T11:02:19;5.10;;;3.20;;
60436;SDS011;46289;51.992;4.498;2023-12-04T11:04:30;7.43;;;4.00;;
60436;SDS011;46289;51.992;4.498;2023-12-04T11:06:37;6.97;;;3.10;;
60436;SDS011;46289;51.992;4.498;2023-12-04T11:08:47;6.90;;;3.65;;
60436;SDS011;46289;51.992;4.498;2023-12-04T11:10:54;6.38;;;3.08;;
60436;SDS011;46289;51.992;4.498;2023-12-04T11:13:06;6.60;;;3.58;;
60436;SDS011;46289;51.992;4.498;2023-12-04T11:15:16;8.05;;;4.60;;
60436;SDS011;46289;51.992;4.498;2023-12-04T11:17:25;7.00;;;3.55;;
60436;SDS011;46289;51.992;4.498;2023-12-04T11:19:35;7.70;;;3.90;;
60436;SDS011;46289;51.992;4.498;2023-12-04T11:21:47;6.70;;;3.03;;
60436;SDS011;46289;51.992;4.498;2023-12-04T11:23:54;10.43;;;3.88;;
60436;SDS011;46289;51.992;4.498;2023-12-04T11:26:00;7.30;;;3.45;;
60436;SDS011;46289;51.992;4.498;2023-12-04T11:28:07;5.30;;;3.28;;
60436;SDS011;46289;51.992;4.498;2023-12-04T11:30:13;9.57;;;4.18;;
60436;SDS011;46289;51.992;4.498;2023-12-04T11:32:20;8.82;;;4.35;;
60436;SDS011;46289;51.992;4.498;2023-12-04T11:34:31;8.23;;;3.83;;
60436;SDS011;46289;51.992;4.498;2023-12-04T11:36:38;7.18;;;3.10;;
60436;SDS011;46289;51.992;4.498;2023-12-04T11:38:46;4.93;;;3.35;;
60436;SDS011;46289;51.992;4.498;2023-12-04T11:40:56;5.65;;;3.38;;
60436;SDS011;46289;51.992;4.498;2023-12-04T11:43:05;6.80;;;3.42;;
60436;SDS011;46289;51.992;4.498;2023-12-04T11:45:29;6.40;;;3.40;;
60436;SDS011;46289;51.992;4.498;2023-12-04T11:47:50;6.78;;;4.30;;
60436;SDS011;46289;51.992;4.498;2023-12-04T11:49:57;6.82;;;3.40;;
60436;SDS011;46289;51.992;4.498;2023-12-04T11:52:03;7.63;;;4.03;;
60436;SDS011;46289;51.992;4.498;2023-12-04T11:54:09;7.45;;;3.55;;
60436;SDS011;46289;51.992;4.498;2023-12-04T11:56:15;9.02;;;4.55;;
60436;SDS011;46289;51.992;4.498;2023-12-04T11:58:20;5.45;;;3.33;;
60436;SDS011;46289;51.992;4.498;2023-12-04T12:00:28;7.97;;;4.43;;
60436;SDS011;46289;51.992;4.498;2023-12-04T12:02:34;9.02;;;4.03;;
60436;SDS011;46289;51.992;4.498;2023-12-04T12:04:57;5.77;;;3.47;;
60436;SDS011;46289;51.992;4.498;2023-12-04T12:07:04;6.07;;;3.15;;
60436;SDS011;46289;51.992;4.498;2023-12-04T12:09:10;4.55;;;3.13;;
60436;SDS011;46289;51.992;4.498;2023-12-04T12:11:15;5.00;;;3.30;;
60436;SDS011;46289;51.992;4.498;2023-12-04T12:13:21;6.38;;;3.28;;
60436;SDS011;46289;51.992;4.498;2023-12-04T12:15:31;8.27;;;3.85;;
60436;SDS011;46289;51.992;4.498;2023-12-04T12:17:38;5.82;;;3.47;;
60436;SDS011;46289;51.992;4.498;2023-12-04T12:19:44;7.60;;;4.13;;
60436;SDS011;46289;51.992;4.498;2023-12-04T12:21:49;6.80;;;3.65;;
60436;SDS011;46289;51.992;4.498;2023-12-04T12:23:54;5.53;;;3.15;;
60436;SDS011;46289;51.992;4.498;2023-12-04T12:26:00;9.93;;;4.00;;
60436;SDS011;46289;51.992;4.498;2023-12-04T12:28:05;7.55;;;4.03;;
60436;SDS011;46289;51.992;4.498;2023-12-04T12:30:13;9.25;;;5.03;;
60436;SDS011;46289;51.992;4.498;2023-12-04T12:32:21;7.20;;;4.22;;
60436;SDS011;46289;51.992;4.498;2023-12-04T12:34:32;6.53;;;4.10;;
60436;SDS011;46289;51.992;4.498;2023-12-04T12:36:38;8.35;;;3.42;;
60436;SDS011;46289;51.992;4.498;2023-12-04T12:38:43;7.32;;;3.90;;
60436;SDS011;46289;51.992;4.498;2023-12-04T12:40:51;6.43;;;3.13;;
60436;SDS011;46289;51.992;4.498;2023-12-04T12:43:06;8.45;;;3.58;;